フォークランド諸島 の空港の天気 - METARとTAF

マウント・プレザント空軍基地 ( EGYP / MPN ) - フォークランド諸島 フォークランド諸島
飛行場実況気象(Metar)
観測時間05/28 18:50 FKST (05/28 21:50 UTC)
風向・風速南南西 10m/s
視程10km以上
天気現象低い地吹雪
全天の4割程度の雲 雲底高度 610m
気温-1℃
湿度86%
気圧996hPa
METAREGYP 282150Z 20019KT 9999 DRSN SCT020 M01/M03 Q0996
過去の天気等 Google飛行場航空写真 Wunderground天気予報

過去48時間のMETAR

飛行場予報(TAF)
発表時間: 5/28 16:33 FKST (5/28 19:33 UTC)
予報対象時間: 28日18時 FKST ~ 29日12時 FKST
風向・風速南南西 8m/s
視程10km以上
少しの積乱雲 雲底高度 300m
全天の4割程度の雲 雲底高度 910m
28日18時 FKST ~ 29日12時 FKST に一時的に
視程3000m
天気現象しゅう雪
全天の8割程度の積乱雲 雲底高度 300m
28日18時 FKST ~ 29日12時 FKST に 確率 40% で一時的に
視程300m
天気現象強いしゅう雪
全天の8割程度の雲 雲底高度 60m
28日18時 FKST ~ 29日1時 FKST に 確率 30% で一時的に
風向・風速南南西 8m/s 瞬間風速 13m/s
29日5時 FKST ~ 29日8時 FKST に徐々に
風向・風速南 5m/s
TAF EGYP 281933Z 2821/2915 20015KT 9999 FEW010CB SCT030
TEMPO 2821/2915 3000 SHSN BKN010CB
PROB40 TEMPO 2821/2915 0300 +SHSN BKN002
PROB30 TEMPO 2821/2904 20016G26KT
BECMG 2908/2911 17010KT